createdAt,value
2023-05-15T00:00:52.182Z,12.90
2023-05-15T00:03:20.292Z,12.90
2023-05-15T00:05:48.350Z,13.00
2023-05-15T00:08:16.311Z,12.90
2023-05-15T00:10:57.465Z,12.90
2023-05-15T00:13:28.824Z,12.80
2023-05-15T00:15:58.116Z,12.80
2023-05-15T00:18:26.129Z,12.80
2023-05-15T00:20:54.053Z,12.80
2023-05-15T00:23:21.940Z,12.80
2023-05-15T00:25:49.878Z,12.80
2023-05-15T00:28:17.841Z,12.70
2023-05-15T00:30:45.718Z,12.70
2023-05-15T00:33:14.940Z,12.70
2023-05-15T00:35:42.876Z,12.70
2023-05-15T00:38:10.785Z,12.60
2023-05-15T00:40:39.637Z,12.60
2023-05-15T00:43:08.014Z,12.50
2023-05-15T00:45:36.531Z,12.50
2023-05-15T00:48:06.000Z,12.50
2023-05-15T00:50:36.029Z,12.50
2023-05-15T00:53:04.680Z,12.40
2023-05-15T00:55:34.466Z,12.40
2023-05-15T00:58:03.376Z,12.40
2023-05-15T01:00:32.943Z,12.40
2023-05-15T01:03:01.854Z,12.50
2023-05-15T01:05:30.454Z,12.50
2023-05-15T01:08:08.968Z,12.50
2023-05-15T01:10:37.387Z,12.40
2023-05-15T01:13:06.152Z,12.40
2023-05-15T01:15:34.176Z,12.40
2023-05-15T01:18:03.346Z,12.40
2023-05-15T01:20:40.695Z,12.30
2023-05-15T01:23:20.375Z,12.30
2023-05-15T01:26:03.818Z,12.30
2023-05-15T01:28:39.371Z,12.30
2023-05-15T01:31:13.687Z,12.30
2023-05-15T01:33:44.998Z,12.20
2023-05-15T01:36:20.071Z,12.20
2023-05-15T01:38:53.415Z,12.20
2023-05-15T01:41:27.746Z,12.20
2023-05-15T01:44:03.673Z,12.20
2023-05-15T01:46:32.637Z,12.20
2023-05-15T01:49:03.509Z,12.30
2023-05-15T01:51:33.055Z,12.20
2023-05-15T01:54:01.250Z,12.20
2023-05-15T01:56:30.452Z,12.20
2023-05-15T01:59:01.289Z,12.20
2023-05-15T02:01:30.849Z,12.20
2023-05-15T02:03:58.975Z,12.20
2023-05-15T02:06:27.111Z,12.30
2023-05-15T02:08:57.466Z,12.20
2023-05-15T02:11:25.604Z,12.20
2023-05-15T02:13:55.945Z,12.20
2023-05-15T02:16:25.424Z,12.20
2023-05-15T02:18:53.635Z,12.20
2023-05-15T02:21:21.777Z,12.10
2023-05-15T02:23:49.646Z,12.00
2023-05-15T02:26:30.770Z,12.00
2023-05-15T02:29:07.616Z,11.90
2023-05-15T02:31:44.897Z,11.90
2023-05-15T02:34:19.217Z,11.90
2023-05-15T02:36:50.745Z,11.90
2023-05-15T02:39:19.726Z,11.90
2023-05-15T02:41:48.953Z,11.80
2023-05-15T02:44:18.581Z,11.80
2023-05-15T02:46:49.095Z,11.80
2023-05-15T02:49:17.028Z,11.70
2023-05-15T02:51:45.178Z,11.60
2023-05-15T02:54:13.413Z,11.50
2023-05-15T02:56:41.457Z,11.30
2023-05-15T02:59:09.298Z,11.30
2023-05-15T03:01:37.279Z,11.30
2023-05-15T03:04:06.720Z,11.30
2023-05-15T03:06:34.641Z,11.20
2023-05-15T03:09:02.891Z,11.30
2023-05-15T03:11:30.776Z,11.30
2023-05-15T03:14:00.017Z,11.30
2023-05-15T03:16:28.153Z,11.30
2023-05-15T03:18:56.192Z,11.30
2023-05-15T03:21:25.584Z,11.30
2023-05-15T03:23:53.432Z,11.30
2023-05-15T03:26:21.781Z,11.30
2023-05-15T03:28:49.690Z,11.40
2023-05-15T03:31:17.589Z,11.30
2023-05-15T03:33:49.767Z,11.10
2023-05-15T03:36:17.622Z,11.00
2023-05-15T03:38:46.913Z,10.90
2023-05-15T03:41:14.850Z,10.80
2023-05-15T03:43:43.074Z,10.70
2023-05-15T03:46:11.199Z,10.70
2023-05-15T03:48:39.111Z,10.60
2023-05-15T03:51:07.066Z,10.50
2023-05-15T03:53:35.175Z,10.40
2023-05-15T03:56:04.565Z,10.30
2023-05-15T03:58:32.903Z,10.30
2023-05-15T04:01:00.973Z,10.20
2023-05-15T04:03:29.013Z,10.20
2023-05-15T04:05:56.948Z,10.20
2023-05-15T04:08:24.927Z,10.20
2023-05-15T04:10:53.143Z,10.20
2023-05-15T04:13:22.440Z,10.20
2023-05-15T04:15:50.273Z,10.20
2023-05-15T04:18:18.154Z,10.20
2023-05-15T04:20:46.002Z,10.20
2023-05-15T04:23:13.867Z,10.20
2023-05-15T04:25:46.394Z,10.20
2023-05-15T04:28:14.328Z,10.30
2023-05-15T04:30:43.703Z,10.40
2023-05-15T04:33:12.121Z,10.40
2023-05-15T04:35:40.320Z,10.40
2023-05-15T04:38:08.232Z,10.40
2023-05-15T04:40:36.210Z,10.40
2023-05-15T04:43:04.275Z,10.30
2023-05-15T04:45:32.181Z,10.40
2023-05-15T04:48:01.442Z,10.40
2023-05-15T04:50:29.430Z,10.50
2023-05-15T04:52:57.598Z,10.60
2023-05-15T04:55:25.640Z,10.70
2023-05-15T04:57:53.746Z,10.90
2023-05-15T05:00:21.675Z,11.10
2023-05-15T05:02:49.733Z,11.20
2023-05-15T05:05:19.234Z,11.40
2023-05-15T05:07:47.104Z,11.50
2023-05-15T05:10:15.364Z,11.60
2023-05-15T05:12:43.266Z,11.70
2023-05-15T05:15:11.766Z,11.80
2023-05-15T05:17:39.715Z,11.80
2023-05-15T05:20:12.942Z,11.90
2023-05-15T05:22:42.771Z,12.10
2023-05-15T05:25:11.151Z,12.30
2023-05-15T05:27:39.095Z,12.30
2023-05-15T05:30:08.541Z,12.50
2023-05-15T05:32:36.445Z,12.60
2023-05-15T05:35:04.899Z,12.70
2023-05-15T05:37:32.787Z,12.80
2023-05-15T05:40:02.015Z,12.90
2023-05-15T05:42:29.897Z,13.10
2023-05-15T05:44:57.939Z,13.20
2023-05-15T05:47:25.986Z,13.40
2023-05-15T05:49:55.194Z,13.40
2023-05-15T05:52:23.179Z,13.60
2023-05-15T05:54:51.023Z,13.60
2023-05-15T05:57:20.557Z,13.70
2023-05-15T05:59:49.812Z,13.80
2023-05-15T06:02:17.865Z,13.90
2023-05-15T06:04:45.998Z,14.00
2023-05-15T06:07:14.244Z,14.20
2023-05-15T06:09:42.174Z,14.30
2023-05-15T06:12:10.060Z,14.50
2023-05-15T06:14:39.355Z,14.60
2023-05-15T06:17:07.355Z,14.80
2023-05-15T06:19:35.258Z,15.10
2023-05-15T06:22:03.216Z,15.20
2023-05-15T06:24:31.123Z,15.30
2023-05-15T06:26:59.148Z,15.40
2023-05-15T06:29:27.973Z,15.50
2023-05-15T06:31:57.334Z,15.70
2023-05-15T06:34:25.280Z,15.80
2023-05-15T06:36:53.377Z,15.90
2023-05-15T06:39:21.287Z,16.00
2023-05-15T06:41:49.378Z,16.10
2023-05-15T06:44:17.219Z,16.10
2023-05-15T06:46:45.213Z,16.10
2023-05-15T06:49:14.404Z,16.10
2023-05-15T06:51:42.381Z,16.10
2023-05-15T06:54:10.259Z,16.20
2023-05-15T06:56:38.205Z,16.30
2023-05-15T06:59:06.113Z,16.40
2023-05-15T07:01:33.997Z,16.50
2023-05-15T07:04:01.976Z,16.60
2023-05-15T07:06:32.025Z,16.60
2023-05-15T07:09:00.334Z,16.60
2023-05-15T07:11:29.418Z,16.60
2023-05-15T07:13:57.562Z,16.60
2023-05-15T07:16:25.555Z,16.60
2023-05-15T07:18:53.523Z,16.70
2023-05-15T07:21:21.445Z,16.80
2023-05-15T07:23:50.602Z,16.70
2023-05-15T07:26:28.642Z,16.80
2023-05-15T07:29:00.625Z,16.90
2023-05-15T07:31:28.625Z,17.00
2023-05-15T07:33:56.493Z,17.00
2023-05-15T07:36:24.554Z,17.00
2023-05-15T07:38:53.790Z,17.10
2023-05-15T07:41:22.032Z,17.20
2023-05-15T07:43:49.990Z,17.30
2023-05-15T07:46:17.848Z,17.40
2023-05-15T07:48:45.814Z,17.40
2023-05-15T07:51:13.792Z,17.50
2023-05-15T07:53:41.679Z,17.50
2023-05-15T07:56:11.684Z,17.50
2023-05-15T07:58:40.316Z,17.70
2023-05-15T08:01:08.201Z,17.90
2023-05-15T08:03:36.150Z,18.00
2023-05-15T08:06:04.238Z,18.20
2023-05-15T08:08:32.143Z,18.40
2023-05-15T08:10:59.990Z,18.50
2023-05-15T08:13:29.503Z,18.50
2023-05-15T08:15:57.569Z,18.50
2023-05-15T08:18:25.465Z,18.50
2023-05-15T08:20:53.432Z,18.70
2023-05-15T08:23:21.355Z,19.10
2023-05-15T08:25:50.942Z,19.40
2023-05-15T08:28:18.760Z,20.00
2023-05-15T08:30:47.946Z,20.40
2023-05-15T08:33:15.955Z,20.90
2023-05-15T08:35:43.928Z,21.20
2023-05-15T08:38:11.812Z,21.60
2023-05-15T08:40:40.786Z,21.90
2023-05-15T08:43:16.320Z,21.90
2023-05-15T08:45:44.736Z,22.20
2023-05-15T08:48:16.574Z,22.40
2023-05-15T08:50:45.065Z,22.70
2023-05-15T08:53:14.137Z,22.60
2023-05-15T08:55:43.251Z,22.80
2023-05-15T08:58:11.305Z,23.00
2023-05-15T09:00:39.822Z,23.20
2023-05-15T09:03:08.280Z,23.40
2023-05-15T09:05:39.965Z,23.60
2023-05-15T09:08:09.274Z,23.60
2023-05-15T09:10:37.318Z,23.70
2023-05-15T09:13:07.497Z,23.80
2023-05-15T09:15:38.426Z,24.00
2023-05-15T09:18:08.041Z,24.20
2023-05-15T09:20:38.925Z,24.30
2023-05-15T09:23:22.691Z,24.20
2023-05-15T09:25:53.838Z,24.40
2023-05-15T09:28:30.243Z,24.40
2023-05-15T09:31:00.952Z,24.20
2023-05-15T09:33:30.458Z,23.90
2023-05-15T09:35:59.966Z,24.20
2023-05-15T09:38:27.860Z,24.50
2023-05-15T09:41:06.381Z,24.30
2023-05-15T09:43:39.160Z,24.40
2023-05-15T09:46:08.339Z,24.30
2023-05-15T09:48:36.641Z,24.00
2023-05-15T09:51:15.299Z,23.90
2023-05-15T09:53:43.200Z,24.30
2023-05-15T09:56:11.422Z,24.40
2023-05-15T09:58:39.300Z,24.60
2023-05-15T10:01:12.403Z,24.50
2023-05-15T10:03:43.708Z,24.50
2023-05-15T10:06:20.063Z,24.70
2023-05-15T10:08:53.165Z,25.20
2023-05-15T10:11:22.607Z,25.50
2023-05-15T10:13:50.779Z,25.50
2023-05-15T10:16:21.252Z,25.60
2023-05-15T10:18:51.588Z,25.90
2023-05-15T10:21:23.483Z,26.10
2023-05-15T10:23:52.631Z,26.30
2023-05-15T10:26:24.952Z,26.10
2023-05-15T10:28:54.008Z,25.00
2023-05-15T10:31:22.920Z,24.20
2023-05-15T10:33:52.414Z,23.50
2023-05-15T10:36:22.100Z,23.20
2023-05-15T10:38:51.491Z,23.10
2023-05-15T10:41:22.488Z,23.30
2023-05-15T10:43:50.830Z,24.00
2023-05-15T10:46:18.863Z,24.30
2023-05-15T10:48:46.941Z,24.10
2023-05-15T10:51:17.133Z,23.60
2023-05-15T10:53:47.168Z,23.10
2023-05-15T10:56:16.760Z,22.70
2023-05-15T10:58:48.819Z,22.40
2023-05-15T11:01:28.061Z,22.20
2023-05-15T11:04:13.398Z,22.00
2023-05-15T11:06:43.757Z,21.90
2023-05-15T11:09:41.299Z,21.90
2023-05-15T11:12:11.586Z,22.10
2023-05-15T11:14:41.836Z,22.20
2023-05-15T11:17:11.769Z,22.30
2023-05-15T11:19:57.597Z,22.60
2023-05-15T11:22:32.975Z,23.20
2023-05-15T11:25:04.989Z,24.00
2023-05-15T11:27:34.294Z,24.50
2023-05-15T11:30:15.749Z,24.80
2023-05-15T11:32:52.018Z,25.30
2023-05-15T11:35:22.438Z,25.60
2023-05-15T11:37:51.875Z,25.80
2023-05-15T11:40:26.571Z,25.80
2023-05-15T11:43:08.646Z,25.70
2023-05-15T11:45:38.524Z,25.70
2023-05-15T11:48:08.285Z,25.70
2023-05-15T11:50:37.547Z,26.00
2023-05-15T11:53:07.896Z,26.10
2023-05-15T11:55:39.002Z,25.90
2023-05-15T11:58:07.329Z,25.70
2023-05-15T12:00:35.215Z,24.90
2023-05-15T12:03:04.650Z,24.30
2023-05-15T12:05:33.070Z,24.00
2023-05-15T12:08:02.492Z,23.90
2023-05-15T12:10:32.146Z,24.20
2023-05-15T12:13:01.538Z,24.50
2023-05-15T12:15:29.539Z,24.50
2023-05-15T12:17:58.261Z,24.50
2023-05-15T12:20:27.302Z,24.90
2023-05-15T12:22:55.391Z,25.00
2023-05-15T12:25:23.375Z,25.40
2023-05-15T12:27:51.499Z,25.90
2023-05-15T12:30:21.191Z,26.10
2023-05-15T12:32:50.394Z,26.30
2023-05-15T12:35:18.507Z,26.40
2023-05-15T12:37:46.648Z,26.70
2023-05-15T12:40:17.401Z,27.10
2023-05-15T12:42:46.565Z,27.30
2023-05-15T12:45:15.830Z,27.50
2023-05-15T12:47:46.404Z,27.70
2023-05-15T12:50:16.716Z,27.80
2023-05-15T12:52:49.056Z,27.70
2023-05-15T12:55:18.308Z,27.50
2023-05-15T12:57:46.689Z,27.60
2023-05-15T13:00:16.475Z,27.60
2023-05-15T13:02:46.642Z,27.50
2023-05-15T13:05:15.127Z,27.80
2023-05-15T13:07:44.258Z,27.80
2023-05-15T13:10:13.668Z,27.80
2023-05-15T13:12:44.673Z,28.10
2023-05-15T13:15:25.720Z,28.20
2023-05-15T13:17:59.021Z,28.20
2023-05-15T13:20:28.005Z,28.70
2023-05-15T13:22:56.270Z,29.00
2023-05-15T13:25:24.125Z,28.80
2023-05-15T13:27:52.941Z,28.70
2023-05-15T13:30:21.040Z,28.80
2023-05-15T13:32:48.899Z,29.10
2023-05-15T13:35:18.176Z,29.10
2023-05-15T13:37:46.075Z,28.70
2023-05-15T13:40:14.819Z,28.80
2023-05-15T13:42:44.181Z,29.00
2023-05-15T13:45:14.549Z,29.00
2023-05-15T13:47:42.663Z,29.10
2023-05-15T13:50:12.644Z,29.30
2023-05-15T13:52:43.110Z,29.50
2023-05-15T13:55:11.930Z,29.30
2023-05-15T13:57:40.862Z,29.10
2023-05-15T14:00:12.670Z,28.60
2023-05-15T14:02:40.897Z,27.50
2023-05-15T14:05:09.910Z,26.50
2023-05-15T14:07:38.317Z,26.30
2023-05-15T14:10:09.576Z,26.30
2023-05-15T14:12:37.620Z,26.40
2023-05-15T14:15:06.437Z,26.60
2023-05-15T14:17:34.366Z,27.00
2023-05-15T14:20:02.291Z,27.40
2023-05-15T14:22:30.151Z,27.60
2023-05-15T14:24:58.311Z,27.30
2023-05-15T14:27:27.551Z,26.80
2023-05-15T14:29:56.670Z,26.50
2023-05-15T14:32:24.884Z,26.20
2023-05-15T14:34:53.095Z,26.00
2023-05-15T14:37:21.012Z,26.40
2023-05-15T14:39:48.932Z,26.50
2023-05-15T14:42:19.954Z,26.00
2023-05-15T14:44:49.482Z,25.40
2023-05-15T14:47:17.522Z,24.80
2023-05-15T14:49:45.476Z,24.30
2023-05-15T14:52:13.471Z,23.90
2023-05-15T14:54:41.456Z,23.70
2023-05-15T14:57:09.402Z,23.50
2023-05-15T14:59:37.272Z,23.30
2023-05-15T15:02:06.925Z,23.00
2023-05-15T15:04:35.057Z,22.80
2023-05-15T15:07:04.858Z,22.60
2023-05-15T15:09:32.757Z,22.50
2023-05-15T15:12:00.739Z,22.30
2023-05-15T15:14:28.606Z,22.30
2023-05-15T15:16:56.503Z,22.50
2023-05-15T15:19:25.873Z,22.90
2023-05-15T15:21:53.921Z,23.50
2023-05-15T15:24:22.086Z,24.00
2023-05-15T15:26:50.076Z,24.30
2023-05-15T15:29:18.105Z,24.30
2023-05-15T15:31:45.946Z,24.10
2023-05-15T15:34:13.784Z,23.80
2023-05-15T15:36:43.667Z,23.80
2023-05-15T15:39:12.904Z,23.40
2023-05-15T15:41:41.002Z,22.80
2023-05-15T15:44:08.926Z,22.50
2023-05-15T15:46:36.790Z,21.90
2023-05-15T15:49:06.633Z,21.40
2023-05-15T15:51:34.828Z,21.10
2023-05-15T15:54:04.161Z,20.80
2023-05-15T15:56:32.109Z,20.70
2023-05-15T15:59:00.036Z,20.60
2023-05-15T16:01:28.709Z,20.40
2023-05-15T16:03:56.858Z,20.10
2023-05-15T16:06:24.878Z,19.90
2023-05-15T16:08:52.902Z,19.60
2023-05-15T16:11:22.510Z,19.40
2023-05-15T16:13:50.471Z,19.10
2023-05-15T16:16:18.449Z,18.80
2023-05-15T16:18:46.425Z,18.60
2023-05-15T16:21:14.706Z,18.50
2023-05-15T16:23:42.708Z,18.40
2023-05-15T16:26:11.402Z,18.30
2023-05-15T16:28:40.740Z,18.20
2023-05-15T16:31:09.283Z,18.20
2023-05-15T16:33:37.359Z,18.20
2023-05-15T16:36:05.859Z,18.10
2023-05-15T16:38:33.789Z,18.10
2023-05-15T16:41:02.176Z,18.10
2023-05-15T16:43:30.409Z,18.10
2023-05-15T16:45:59.887Z,18.00
2023-05-15T16:48:28.789Z,18.00
2023-05-15T16:50:56.890Z,18.00
2023-05-15T16:53:25.008Z,18.00
2023-05-15T16:55:54.018Z,17.90
2023-05-15T16:58:21.953Z,17.90
2023-05-15T17:00:50.208Z,17.90
2023-05-15T17:03:20.314Z,17.90
2023-05-15T17:05:48.442Z,17.80
2023-05-15T17:08:16.256Z,17.70
2023-05-15T17:10:44.202Z,17.70
2023-05-15T17:13:12.027Z,17.60
2023-05-15T17:15:39.930Z,17.60
2023-05-15T17:18:08.280Z,17.70
2023-05-15T17:20:37.524Z,17.70
2023-05-15T17:23:05.433Z,17.70
2023-05-15T17:25:33.318Z,17.70
2023-05-15T17:28:01.189Z,17.80
2023-05-15T17:30:29.109Z,17.80
2023-05-15T17:32:57.162Z,17.90
2023-05-15T17:35:25.475Z,18.00
2023-05-15T17:37:54.875Z,18.00
2023-05-15T17:40:22.723Z,18.10
2023-05-15T17:42:50.587Z,18.20
2023-05-15T17:45:18.527Z,18.20
2023-05-15T17:47:46.513Z,18.20
2023-05-15T17:50:14.679Z,18.20
2023-05-15T17:52:42.662Z,18.10
2023-05-15T17:55:12.036Z,18.10
2023-05-15T17:57:39.886Z,18.00
2023-05-15T18:00:09.204Z,17.90
2023-05-15T18:02:37.156Z,17.80
2023-05-15T18:05:05.343Z,17.70
2023-05-15T18:07:33.159Z,17.70
2023-05-15T18:10:01.113Z,17.70
2023-05-15T18:12:30.391Z,17.60
2023-05-15T18:14:58.348Z,17.60
2023-05-15T18:17:26.352Z,17.70
2023-05-15T18:19:54.301Z,17.60
2023-05-15T18:22:22.146Z,17.50
2023-05-15T18:24:50.081Z,17.40
2023-05-15T18:27:17.934Z,17.40
2023-05-15T18:29:47.116Z,17.30
2023-05-15T18:32:14.976Z,17.30
2023-05-15T18:34:42.886Z,17.20
2023-05-15T18:37:10.806Z,17.20
2023-05-15T18:39:39.459Z,17.10
2023-05-15T18:42:07.947Z,17.10
2023-05-15T18:44:35.988Z,17.10
2023-05-15T18:47:05.793Z,17.10
2023-05-15T18:49:33.838Z,17.00
2023-05-15T18:52:01.673Z,17.00
2023-05-15T18:54:29.582Z,16.90
2023-05-15T18:56:57.500Z,16.90
2023-05-15T18:59:25.496Z,16.70
2023-05-15T19:01:54.136Z,16.60
2023-05-15T19:04:23.508Z,16.30
2023-05-15T19:06:51.399Z,16.10
2023-05-15T19:09:19.762Z,15.90
2023-05-15T19:11:49.372Z,15.70
2023-05-15T19:14:18.036Z,15.50
2023-05-15T19:16:46.392Z,15.20
2023-05-15T19:19:14.738Z,15.10
2023-05-15T19:21:44.414Z,14.90
2023-05-15T19:24:12.339Z,14.70
2023-05-15T19:26:40.267Z,14.70
2023-05-15T19:29:08.142Z,14.50
2023-05-15T19:31:37.350Z,14.50
2023-05-15T19:34:05.304Z,14.50
2023-05-15T19:36:33.225Z,14.50
2023-05-15T19:39:02.459Z,14.50
2023-05-15T19:41:30.519Z,14.40
2023-05-15T19:43:58.372Z,14.40
2023-05-15T19:46:26.363Z,14.40
2023-05-15T19:48:54.301Z,14.40
2023-05-15T19:51:22.255Z,14.30
2023-05-15T19:53:50.093Z,14.30
2023-05-15T19:56:22.884Z,14.30
2023-05-15T19:58:50.734Z,14.20
2023-05-15T20:01:18.819Z,14.10
2023-05-15T20:03:46.855Z,14.10
2023-05-15T20:06:15.130Z,14.00
2023-05-15T20:08:43.431Z,14.00
2023-05-15T20:11:11.308Z,14.10
2023-05-15T20:13:40.514Z,14.10
2023-05-15T20:16:10.596Z,14.10
2023-05-15T20:18:39.535Z,14.10
2023-05-15T20:21:07.628Z,14.00
2023-05-15T20:23:35.554Z,14.10
2023-05-15T20:26:04.864Z,14.10
2023-05-15T20:28:32.842Z,14.10
2023-05-15T20:31:02.556Z,14.10
2023-05-15T20:33:30.494Z,14.10
2023-05-15T20:35:58.705Z,14.10
2023-05-15T20:38:26.540Z,14.10
2023-05-15T20:40:54.456Z,14.10
2023-05-15T20:43:22.635Z,14.10
2023-05-15T20:45:50.914Z,14.10
2023-05-15T20:48:20.292Z,14.10
2023-05-15T20:50:48.626Z,14.10
2023-05-15T20:53:16.619Z,14.00
2023-05-15T20:55:44.634Z,14.00
2023-05-15T20:58:12.565Z,13.90
2023-05-15T21:00:40.605Z,13.90
2023-05-15T21:03:09.371Z,13.90
2023-05-15T21:05:38.942Z,13.90
2023-05-15T21:08:06.947Z,14.00
2023-05-15T21:10:34.867Z,14.00
2023-05-15T21:13:02.890Z,14.00
2023-05-15T21:15:30.748Z,14.10
2023-05-15T21:17:58.671Z,14.00
2023-05-15T21:20:27.122Z,14.00
2023-05-15T21:22:56.561Z,14.10
2023-05-15T21:25:24.466Z,14.10
2023-05-15T21:27:52.391Z,14.10
2023-05-15T21:30:20.639Z,14.10
2023-05-15T21:32:48.757Z,14.00
2023-05-15T21:35:16.954Z,14.00
2023-05-15T21:37:44.751Z,14.00
2023-05-15T21:40:14.800Z,14.00
2023-05-15T21:42:43.058Z,14.00
2023-05-15T21:45:11.329Z,13.90
2023-05-15T21:47:39.246Z,13.90
2023-05-15T21:50:08.074Z,13.90
2023-05-15T21:52:36.239Z,13.90
2023-05-15T21:55:04.906Z,13.80
2023-05-15T21:57:34.202Z,13.80
2023-05-15T22:00:02.582Z,13.70
2023-05-15T22:02:30.888Z,13.70
2023-05-15T22:04:58.862Z,13.70
2023-05-15T22:07:26.740Z,13.60
2023-05-15T22:09:54.630Z,13.50
2023-05-15T22:12:22.765Z,13.50
2023-05-15T22:14:58.909Z,13.50
2023-05-15T22:17:30.553Z,13.40
2023-05-15T22:20:07.119Z,13.40
2023-05-15T22:22:36.344Z,13.30
2023-05-15T22:25:04.484Z,13.30
2023-05-15T22:27:32.633Z,13.30
2023-05-15T22:30:02.008Z,13.20
2023-05-15T22:32:29.922Z,13.20
2023-05-15T22:34:57.846Z,13.10
2023-05-15T22:37:25.741Z,13.10
2023-05-15T22:39:53.642Z,13.10
2023-05-15T22:42:21.435Z,13.10
2023-05-15T22:44:49.429Z,13.10
2023-05-15T22:47:18.976Z,13.10
2023-05-15T22:49:46.862Z,13.10
2023-05-15T22:52:14.690Z,13.10
2023-05-15T22:54:42.523Z,13.10
2023-05-15T22:57:10.508Z,13.10
2023-05-15T22:59:38.859Z,13.00
2023-05-15T23:02:07.036Z,13.00
2023-05-15T23:04:36.594Z,13.00
2023-05-15T23:07:05.111Z,13.00
2023-05-15T23:09:32.993Z,13.00
2023-05-15T23:12:01.266Z,13.00
2023-05-15T23:14:29.133Z,13.00
2023-05-15T23:16:56.991Z,13.00
2023-05-15T23:19:24.934Z,13.00
2023-05-15T23:21:54.264Z,13.00
2023-05-15T23:24:22.207Z,13.00
2023-05-15T23:26:50.127Z,13.00
2023-05-15T23:29:18.144Z,13.00
2023-05-15T23:31:46.137Z,13.00
2023-05-15T23:34:14.181Z,13.00
2023-05-15T23:36:42.133Z,13.00
2023-05-15T23:39:11.322Z,12.90
2023-05-15T23:41:39.255Z,12.90
2023-05-15T23:44:07.110Z,12.90
2023-05-15T23:46:35.795Z,12.90
2023-05-15T23:49:04.086Z,12.90
2023-05-15T23:51:32.285Z,12.80
2023-05-15T23:54:00.236Z,12.80
2023-05-15T23:56:29.548Z,12.80
2023-05-15T23:58:57.413Z,12.70
